sensor_id;sensor_type;location;lat;lon;timestamp;P1;durP1;ratioP1;P2;durP2;ratioP2
61397;SDS011;47267;48.130;-2.040;2022-11-20T00:01:28;2.65;;;2.00;;
61397;SDS011;47267;48.130;-2.040;2022-11-20T00:03:55;2.88;;;1.90;;
61397;SDS011;47267;48.130;-2.040;2022-11-20T00:06:22;2.50;;;1.80;;
61397;SDS011;47267;48.130;-2.040;2022-11-20T00:08:49;3.55;;;2.20;;
61397;SDS011;47267;48.130;-2.040;2022-11-20T00:11:16;3.22;;;2.08;;
61397;SDS011;47267;48.130;-2.040;2022-11-20T00:13:44;2.80;;;1.75;;
61397;SDS011;47267;48.130;-2.040;2022-11-20T00:16:11;2.47;;;1.90;;
61397;SDS011;47267;48.130;-2.040;2022-11-20T00:18:38;2.80;;;1.98;;
61397;SDS011;47267;48.130;-2.040;2022-11-20T00:21:05;4.43;;;2.20;;
61397;SDS011;47267;48.130;-2.040;2022-11-20T00:23:34;4.53;;;2.17;;
61397;SDS011;47267;48.130;-2.040;2022-11-20T00:26:01;3.67;;;2.03;;
61397;SDS011;47267;48.130;-2.040;2022-11-20T00:28:30;3.23;;;1.70;;
61397;SDS011;47267;48.130;-2.040;2022-11-20T00:31:00;3.33;;;1.90;;
61397;SDS011;47267;48.130;-2.040;2022-11-20T00:33:27;3.10;;;1.98;;
61397;SDS011;47267;48.130;-2.040;2022-11-20T00:35:56;2.58;;;1.90;;
61397;SDS011;47267;48.130;-2.040;2022-11-20T00:38:36;2.85;;;1.75;;
61397;SDS011;47267;48.130;-2.040;2022-11-20T00:41:06;3.90;;;1.95;;
61397;SDS011;47267;48.130;-2.040;2022-11-20T00:43:36;2.28;;;1.67;;
61397;SDS011;47267;48.130;-2.040;2022-11-20T00:48:31;4.53;;;2.00;;
61397;SDS011;47267;48.130;-2.040;2022-11-20T00:50:57;3.53;;;2.00;;
61397;SDS011;47267;48.130;-2.040;2022-11-20T00:53:24;2.90;;;2.08;;
61397;SDS011;47267;48.130;-2.040;2022-11-20T00:55:56;2.85;;;1.63;;
61397;SDS011;47267;48.130;-2.040;2022-11-20T00:58:29;3.45;;;2.00;;
61397;SDS011;47267;48.130;-2.040;2022-11-20T01:01:05;3.25;;;1.77;;
61397;SDS011;47267;48.130;-2.040;2022-11-20T01:03:34;2.92;;;1.92;;
61397;SDS011;47267;48.130;-2.040;2022-11-20T01:06:02;3.17;;;1.70;;
61397;SDS011;47267;48.130;-2.040;2022-11-20T01:08:32;3.15;;;1.58;;
61397;SDS011;47267;48.130;-2.040;2022-11-20T01:11:00;3.35;;;1.70;;
61397;SDS011;47267;48.130;-2.040;2022-11-20T01:13:28;3.80;;;1.88;;
61397;SDS011;47267;48.130;-2.040;2022-11-20T01:18:37;3.28;;;1.73;;
61397;SDS011;47267;48.130;-2.040;2022-11-20T01:21:05;2.85;;;1.90;;
61397;SDS011;47267;48.130;-2.040;2022-11-20T01:23:37;4.15;;;2.20;;
61397;SDS011;47267;48.130;-2.040;2022-11-20T01:26:05;2.72;;;1.63;;
61397;SDS011;47267;48.130;-2.040;2022-11-20T01:28:33;3.85;;;2.00;;
61397;SDS011;47267;48.130;-2.040;2022-11-20T01:30:59;3.83;;;1.95;;
61397;SDS011;47267;48.130;-2.040;2022-11-20T01:33:25;3.60;;;2.08;;
61397;SDS011;47267;48.130;-2.040;2022-11-20T01:35:51;4.60;;;1.67;;
61397;SDS011;47267;48.130;-2.040;2022-11-20T01:38:18;2.55;;;1.80;;
61397;SDS011;47267;48.130;-2.040;2022-11-20T01:40:45;2.92;;;1.67;;
61397;SDS011;47267;48.130;-2.040;2022-11-20T01:43:18;2.85;;;1.70;;
61397;SDS011;47267;48.130;-2.040;2022-11-20T01:48:13;3.72;;;1.95;;
61397;SDS011;47267;48.130;-2.040;2022-11-20T01:50:39;4.13;;;1.88;;
61397;SDS011;47267;48.130;-2.040;2022-11-20T01:53:10;2.50;;;1.58;;
61397;SDS011;47267;48.130;-2.040;2022-11-20T01:55:42;4.18;;;1.70;;
61397;SDS011;47267;48.130;-2.040;2022-11-20T01:58:12;2.40;;;1.80;;
61397;SDS011;47267;48.130;-2.040;2022-11-20T02:00:38;2.75;;;1.58;;
61397;SDS011;47267;48.130;-2.040;2022-11-20T02:03:06;2.45;;;1.67;;
61397;SDS011;47267;48.130;-2.040;2022-11-20T02:08:31;2.47;;;1.73;;
61397;SDS011;47267;48.130;-2.040;2022-11-20T02:10:58;2.92;;;1.90;;
61397;SDS011;47267;48.130;-2.040;2022-11-20T02:13:24;2.92;;;1.73;;
61397;SDS011;47267;48.130;-2.040;2022-11-20T02:16:12;3.75;;;1.83;;
61397;SDS011;47267;48.130;-2.040;2022-11-20T02:18:45;3.30;;;1.70;;
61397;SDS011;47267;48.130;-2.040;2022-11-20T02:21:18;3.70;;;2.15;;
61397;SDS011;47267;48.130;-2.040;2022-11-20T02:26:39;2.05;;;1.60;;
61397;SDS011;47267;48.130;-2.040;2022-11-20T02:32:24;2.40;;;1.60;;
61397;SDS011;47267;48.130;-2.040;2022-11-20T02:34:52;3.40;;;1.88;;
61397;SDS011;47267;48.130;-2.040;2022-11-20T02:37:18;2.78;;;1.65;;
61397;SDS011;47267;48.130;-2.040;2022-11-20T02:39:48;2.92;;;1.77;;
61397;SDS011;47267;48.130;-2.040;2022-11-20T02:42:16;2.63;;;1.90;;
61397;SDS011;47267;48.130;-2.040;2022-11-20T02:44:42;3.72;;;1.75;;
61397;SDS011;47267;48.130;-2.040;2022-11-20T02:47:08;2.65;;;1.70;;
61397;SDS011;47267;48.130;-2.040;2022-11-20T02:49:34;3.58;;;1.75;;
61397;SDS011;47267;48.130;-2.040;2022-11-20T02:52:00;2.97;;;1.70;;
61397;SDS011;47267;48.130;-2.040;2022-11-20T02:54:26;3.38;;;1.65;;
61397;SDS011;47267;48.130;-2.040;2022-11-20T02:56:52;2.78;;;1.55;;
61397;SDS011;47267;48.130;-2.040;2022-11-20T02:59:19;2.50;;;1.70;;
61397;SDS011;47267;48.130;-2.040;2022-11-20T03:01:50;3.58;;;1.77;;
61397;SDS011;47267;48.130;-2.040;2022-11-20T03:04:15;3.47;;;1.60;;
61397;SDS011;47267;48.130;-2.040;2022-11-20T03:06:41;2.13;;;1.33;;
61397;SDS011;47267;48.130;-2.040;2022-11-20T03:09:07;4.05;;;1.80;;
61397;SDS011;47267;48.130;-2.040;2022-11-20T03:11:32;2.30;;;1.63;;
61397;SDS011;47267;48.130;-2.040;2022-11-20T03:14:01;2.63;;;1.63;;
61397;SDS011;47267;48.130;-2.040;2022-11-20T03:16:28;2.38;;;1.50;;
61397;SDS011;47267;48.130;-2.040;2022-11-20T03:18:53;3.40;;;1.80;;
61397;SDS011;47267;48.130;-2.040;2022-11-20T03:21:19;3.33;;;1.77;;
61397;SDS011;47267;48.130;-2.040;2022-11-20T03:23:45;3.17;;;1.70;;
61397;SDS011;47267;48.130;-2.040;2022-11-20T03:26:12;2.97;;;1.60;;
61397;SDS011;47267;48.130;-2.040;2022-11-20T03:28:41;3.72;;;1.58;;
61397;SDS011;47267;48.130;-2.040;2022-11-20T03:31:08;3.08;;;1.70;;
61397;SDS011;47267;48.130;-2.040;2022-11-20T03:33:36;3.85;;;1.65;;
61397;SDS011;47267;48.130;-2.040;2022-11-20T03:36:06;2.50;;;1.58;;
61397;SDS011;47267;48.130;-2.040;2022-11-20T03:38:35;2.58;;;1.58;;
61397;SDS011;47267;48.130;-2.040;2022-11-20T03:41:02;3.38;;;1.52;;
61397;SDS011;47267;48.130;-2.040;2022-11-20T03:43:32;3.20;;;1.70;;
61397;SDS011;47267;48.130;-2.040;2022-11-20T03:45:59;3.83;;;1.67;;
61397;SDS011;47267;48.130;-2.040;2022-11-20T03:48:25;2.28;;;1.55;;
61397;SDS011;47267;48.130;-2.040;2022-11-20T03:50:51;2.55;;;1.30;;
61397;SDS011;47267;48.130;-2.040;2022-11-20T03:53:18;2.08;;;1.40;;
61397;SDS011;47267;48.130;-2.040;2022-11-20T03:55:44;2.25;;;1.42;;
61397;SDS011;47267;48.130;-2.040;2022-11-20T03:58:15;3.08;;;1.55;;
61397;SDS011;47267;48.130;-2.040;2022-11-20T04:00:40;2.38;;;1.33;;
61397;SDS011;47267;48.130;-2.040;2022-11-20T04:03:06;2.55;;;1.35;;
61397;SDS011;47267;48.130;-2.040;2022-11-20T04:05:33;2.33;;;1.38;;
61397;SDS011;47267;48.130;-2.040;2022-11-20T04:07:59;2.05;;;1.20;;
61397;SDS011;47267;48.130;-2.040;2022-11-20T04:10:25;1.95;;;1.20;;
61397;SDS011;47267;48.130;-2.040;2022-11-20T04:12:50;2.42;;;1.35;;
61397;SDS011;47267;48.130;-2.040;2022-11-20T04:15:16;2.65;;;1.58;;
61397;SDS011;47267;48.130;-2.040;2022-11-20T04:17:41;2.83;;;1.20;;
61397;SDS011;47267;48.130;-2.040;2022-11-20T04:20:07;2.40;;;1.30;;
61397;SDS011;47267;48.130;-2.040;2022-11-20T04:22:33;1.63;;;1.10;;
61397;SDS011;47267;48.130;-2.040;2022-11-20T04:24:59;2.85;;;1.30;;
61397;SDS011;47267;48.130;-2.040;2022-11-20T04:27:25;2.40;;;1.40;;
61397;SDS011;47267;48.130;-2.040;2022-11-20T04:29:50;2.13;;;1.23;;
61397;SDS011;47267;48.130;-2.040;2022-11-20T04:32:16;1.90;;;1.30;;
61397;SDS011;47267;48.130;-2.040;2022-11-20T04:34:42;2.05;;;1.27;;
61397;SDS011;47267;48.130;-2.040;2022-11-20T04:37:08;2.58;;;1.60;;
61397;SDS011;47267;48.130;-2.040;2022-11-20T04:39:33;2.20;;;1.02;;
61397;SDS011;47267;48.130;-2.040;2022-11-20T04:41:59;2.65;;;1.35;;
61397;SDS011;47267;48.130;-2.040;2022-11-20T04:44:44;2.05;;;1.10;;
61397;SDS011;47267;48.130;-2.040;2022-11-20T04:47:09;2.58;;;1.35;;
61397;SDS011;47267;48.130;-2.040;2022-11-20T04:49:35;2.75;;;1.30;;
61397;SDS011;47267;48.130;-2.040;2022-11-20T04:52:01;2.22;;;1.25;;
61397;SDS011;47267;48.130;-2.040;2022-11-20T04:54:26;2.22;;;1.17;;
61397;SDS011;47267;48.130;-2.040;2022-11-20T04:56:52;2.17;;;1.17;;
61397;SDS011;47267;48.130;-2.040;2022-11-20T04:59:18;1.95;;;1.35;;
61397;SDS011;47267;48.130;-2.040;2022-11-20T05:01:44;1.98;;;1.40;;
61397;SDS011;47267;48.130;-2.040;2022-11-20T05:04:10;2.45;;;1.20;;
61397;SDS011;47267;48.130;-2.040;2022-11-20T05:06:36;1.88;;;1.25;;
61397;SDS011;47267;48.130;-2.040;2022-11-20T05:09:02;1.90;;;1.23;;
61397;SDS011;47267;48.130;-2.040;2022-11-20T05:11:27;1.73;;;0.98;;
61397;SDS011;47267;48.130;-2.040;2022-11-20T05:13:57;1.75;;;0.90;;
61397;SDS011;47267;48.130;-2.040;2022-11-20T05:16:24;3.03;;;1.20;;
61397;SDS011;47267;48.130;-2.040;2022-11-20T05:18:50;2.28;;;1.10;;
61397;SDS011;47267;48.130;-2.040;2022-11-20T05:21:17;2.10;;;1.25;;
61397;SDS011;47267;48.130;-2.040;2022-11-20T05:23:44;2.05;;;1.20;;
61397;SDS011;47267;48.130;-2.040;2022-11-20T05:26:15;2.53;;;1.00;;
61397;SDS011;47267;48.130;-2.040;2022-11-20T05:28:42;2.08;;;1.23;;
61397;SDS011;47267;48.130;-2.040;2022-11-20T05:31:12;2.28;;;1.20;;
61397;SDS011;47267;48.130;-2.040;2022-11-20T05:33:40;1.48;;;1.10;;
61397;SDS011;47267;48.130;-2.040;2022-11-20T05:36:07;1.83;;;0.90;;
61397;SDS011;47267;48.130;-2.040;2022-11-20T05:38:33;1.88;;;1.10;;
61397;SDS011;47267;48.130;-2.040;2022-11-20T05:41:10;1.30;;;1.00;;
61397;SDS011;47267;48.130;-2.040;2022-11-20T05:43:40;2.05;;;1.02;;
61397;SDS011;47267;48.130;-2.040;2022-11-20T05:46:08;2.20;;;1.17;;
61397;SDS011;47267;48.130;-2.040;2022-11-20T05:48:36;2.05;;;1.00;;
61397;SDS011;47267;48.130;-2.040;2022-11-20T05:51:05;2.30;;;1.25;;
61397;SDS011;47267;48.130;-2.040;2022-11-20T05:53:32;1.40;;;1.00;;
61397;SDS011;47267;48.130;-2.040;2022-11-20T05:55:59;1.67;;;1.00;;
61397;SDS011;47267;48.130;-2.040;2022-11-20T05:58:25;1.38;;;0.90;;
61397;SDS011;47267;48.130;-2.040;2022-11-20T06:00:51;1.60;;;0.80;;
61397;SDS011;47267;48.130;-2.040;2022-11-20T06:03:16;1.10;;;0.82;;
61397;SDS011;47267;48.130;-2.040;2022-11-20T06:05:42;1.88;;;1.00;;
61397;SDS011;47267;48.130;-2.040;2022-11-20T06:08:08;2.00;;;0.90;;
61397;SDS011;47267;48.130;-2.040;2022-11-20T06:10:33;1.70;;;1.00;;
61397;SDS011;47267;48.130;-2.040;2022-11-20T06:12:59;1.73;;;0.80;;
61397;SDS011;47267;48.130;-2.040;2022-11-20T06:15:25;1.15;;;0.80;;
61397;SDS011;47267;48.130;-2.040;2022-11-20T06:17:54;1.85;;;0.90;;
61397;SDS011;47267;48.130;-2.040;2022-11-20T06:20:21;1.48;;;1.00;;
61397;SDS011;47267;48.130;-2.040;2022-11-20T06:22:46;1.33;;;0.75;;
61397;SDS011;47267;48.130;-2.040;2022-11-20T06:25:13;1.73;;;1.00;;
61397;SDS011;47267;48.130;-2.040;2022-11-20T06:27:38;1.60;;;0.88;;
61397;SDS011;47267;48.130;-2.040;2022-11-20T06:30:04;1.33;;;0.90;;
61397;SDS011;47267;48.130;-2.040;2022-11-20T06:32:30;1.23;;;0.85;;
61397;SDS011;47267;48.130;-2.040;2022-11-20T06:34:56;1.50;;;0.90;;
61397;SDS011;47267;48.130;-2.040;2022-11-20T06:37:22;1.52;;;0.90;;
61397;SDS011;47267;48.130;-2.040;2022-11-20T06:39:47;1.58;;;0.80;;
61397;SDS011;47267;48.130;-2.040;2022-11-20T06:42:13;1.13;;;0.75;;
61397;SDS011;47267;48.130;-2.040;2022-11-20T06:44:39;1.77;;;0.90;;
61397;SDS011;47267;48.130;-2.040;2022-11-20T06:47:05;1.17;;;0.85;;
61397;SDS011;47267;48.130;-2.040;2022-11-20T06:49:31;1.70;;;0.75;;
61397;SDS011;47267;48.130;-2.040;2022-11-20T06:51:59;1.75;;;0.98;;
61397;SDS011;47267;48.130;-2.040;2022-11-20T06:54:24;0.80;;;0.70;;
61397;SDS011;47267;48.130;-2.040;2022-11-20T06:56:51;1.95;;;1.00;;
61397;SDS011;47267;48.130;-2.040;2022-11-20T06:59:17;1.65;;;0.90;;
61397;SDS011;47267;48.130;-2.040;2022-11-20T07:01:42;0.93;;;0.70;;
61397;SDS011;47267;48.130;-2.040;2022-11-20T07:04:09;1.20;;;0.75;;
61397;SDS011;47267;48.130;-2.040;2022-11-20T07:06:35;1.42;;;0.82;;
61397;SDS011;47267;48.130;-2.040;2022-11-20T07:09:01;1.00;;;0.60;;
61397;SDS011;47267;48.130;-2.040;2022-11-20T07:11:27;1.20;;;0.75;;
61397;SDS011;47267;48.130;-2.040;2022-11-20T07:13:52;2.63;;;0.90;;
61397;SDS011;47267;48.130;-2.040;2022-11-20T07:16:18;0.93;;;0.65;;
61397;SDS011;47267;48.130;-2.040;2022-11-20T07:18:44;1.10;;;0.65;;
61397;SDS011;47267;48.130;-2.040;2022-11-20T07:21:10;1.33;;;0.75;;
61397;SDS011;47267;48.130;-2.040;2022-11-20T07:23:36;1.02;;;0.70;;
61397;SDS011;47267;48.130;-2.040;2022-11-20T07:26:03;2.20;;;0.93;;
61397;SDS011;47267;48.130;-2.040;2022-11-20T07:28:30;2.30;;;0.90;;
61397;SDS011;47267;48.130;-2.040;2022-11-20T07:30:56;1.15;;;0.60;;
61397;SDS011;47267;48.130;-2.040;2022-11-20T07:33:22;1.08;;;0.70;;
61397;SDS011;47267;48.130;-2.040;2022-11-20T07:35:48;0.77;;;0.60;;
61397;SDS011;47267;48.130;-2.040;2022-11-20T07:38:13;0.90;;;0.60;;
61397;SDS011;47267;48.130;-2.040;2022-11-20T07:40:39;1.65;;;0.70;;
61397;SDS011;47267;48.130;-2.040;2022-11-20T07:43:05;0.82;;;0.65;;
61397;SDS011;47267;48.130;-2.040;2022-11-20T07:45:30;1.27;;;0.85;;
61397;SDS011;47267;48.130;-2.040;2022-11-20T07:47:56;1.50;;;0.82;;
61397;SDS011;47267;48.130;-2.040;2022-11-20T07:50:22;2.35;;;0.90;;
61397;SDS011;47267;48.130;-2.040;2022-11-20T07:52:47;1.92;;;0.95;;
61397;SDS011;47267;48.130;-2.040;2022-11-20T07:55:13;2.20;;;1.25;;
61397;SDS011;47267;48.130;-2.040;2022-11-20T07:57:39;3.15;;;1.40;;
61397;SDS011;47267;48.130;-2.040;2022-11-20T08:00:06;2.88;;;1.48;;
61397;SDS011;47267;48.130;-2.040;2022-11-20T08:02:36;3.55;;;1.70;;
61397;SDS011;47267;48.130;-2.040;2022-11-20T08:05:04;2.43;;;1.50;;
61397;SDS011;47267;48.130;-2.040;2022-11-20T08:07:34;4.10;;;1.95;;
61397;SDS011;47267;48.130;-2.040;2022-11-20T08:10:04;2.70;;;1.77;;
61397;SDS011;47267;48.130;-2.040;2022-11-20T08:12:30;3.60;;;2.28;;
61397;SDS011;47267;48.130;-2.040;2022-11-20T08:15:15;3.33;;;2.10;;
61397;SDS011;47267;48.130;-2.040;2022-11-20T08:17:41;3.85;;;2.30;;
61397;SDS011;47267;48.130;-2.040;2022-11-20T08:20:07;4.13;;;2.50;;
61397;SDS011;47267;48.130;-2.040;2022-11-20T08:22:34;3.67;;;2.25;;
61397;SDS011;47267;48.130;-2.040;2022-11-20T08:25:00;4.50;;;2.35;;
61397;SDS011;47267;48.130;-2.040;2022-11-20T08:27:26;4.90;;;2.55;;
61397;SDS011;47267;48.130;-2.040;2022-11-20T08:29:52;4.68;;;2.50;;
61397;SDS011;47267;48.130;-2.040;2022-11-20T08:32:18;3.85;;;2.10;;
61397;SDS011;47267;48.130;-2.040;2022-11-20T08:34:44;4.85;;;2.63;;
61397;SDS011;47267;48.130;-2.040;2022-11-20T08:37:11;4.85;;;2.50;;
61397;SDS011;47267;48.130;-2.040;2022-11-20T08:39:40;6.80;;;2.60;;
61397;SDS011;47267;48.130;-2.040;2022-11-20T08:42:08;4.38;;;2.58;;
61397;SDS011;47267;48.130;-2.040;2022-11-20T08:44:34;5.15;;;2.92;;
61397;SDS011;47267;48.130;-2.040;2022-11-20T08:47:00;6.38;;;2.53;;
61397;SDS011;47267;48.130;-2.040;2022-11-20T08:49:26;5.50;;;2.90;;
61397;SDS011;47267;48.130;-2.040;2022-11-20T08:51:51;4.93;;;2.70;;
61397;SDS011;47267;48.130;-2.040;2022-11-20T08:54:20;4.45;;;2.70;;
61397;SDS011;47267;48.130;-2.040;2022-11-20T08:56:47;8.30;;;2.85;;
61397;SDS011;47267;48.130;-2.040;2022-11-20T08:59:13;6.05;;;2.92;;
61397;SDS011;47267;48.130;-2.040;2022-11-20T09:01:39;5.68;;;3.00;;
61397;SDS011;47267;48.130;-2.040;2022-11-20T09:04:04;5.13;;;2.95;;
61397;SDS011;47267;48.130;-2.040;2022-11-20T09:06:30;5.90;;;3.10;;
61397;SDS011;47267;48.130;-2.040;2022-11-20T09:08:56;4.85;;;2.83;;
61397;SDS011;47267;48.130;-2.040;2022-11-20T09:11:22;6.38;;;3.15;;
61397;SDS011;47267;48.130;-2.040;2022-11-20T09:13:47;5.30;;;2.85;;
61397;SDS011;47267;48.130;-2.040;2022-11-20T09:16:14;4.95;;;2.92;;
61397;SDS011;47267;48.130;-2.040;2022-11-20T09:18:39;6.80;;;2.92;;
61397;SDS011;47267;48.130;-2.040;2022-11-20T09:21:06;10.00;;;3.22;;
61397;SDS011;47267;48.130;-2.040;2022-11-20T09:23:37;5.22;;;3.10;;
61397;SDS011;47267;48.130;-2.040;2022-11-20T09:26:09;6.20;;;3.30;;
61397;SDS011;47267;48.130;-2.040;2022-11-20T09:28:36;7.40;;;3.15;;
61397;SDS011;47267;48.130;-2.040;2022-11-20T09:31:05;6.05;;;3.28;;
61397;SDS011;47267;48.130;-2.040;2022-11-20T09:33:32;7.05;;;3.30;;
61397;SDS011;47267;48.130;-2.040;2022-11-20T09:36:01;6.00;;;3.22;;
61397;SDS011;47267;48.130;-2.040;2022-11-20T09:38:27;7.97;;;3.28;;
61397;SDS011;47267;48.130;-2.040;2022-11-20T09:40:55;7.50;;;3.40;;
61397;SDS011;47267;48.130;-2.040;2022-11-20T09:46:09;8.77;;;3.20;;
61397;SDS011;47267;48.130;-2.040;2022-11-20T09:51:28;8.82;;;3.42;;
61397;SDS011;47267;48.130;-2.040;2022-11-20T09:56:36;12.85;;;3.55;;
61397;SDS011;47267;48.130;-2.040;2022-11-20T09:59:07;9.43;;;3.33;;
61397;SDS011;47267;48.130;-2.040;2022-11-20T10:01:51;9.15;;;3.53;;
61397;SDS011;47267;48.130;-2.040;2022-11-20T10:04:19;6.20;;;3.00;;
61397;SDS011;47267;48.130;-2.040;2022-11-20T10:06:56;9.82;;;3.75;;
61397;SDS011;47267;48.130;-2.040;2022-11-20T10:09:32;7.57;;;3.45;;
61397;SDS011;47267;48.130;-2.040;2022-11-20T10:25:44;11.00;;;4.85;;
61397;SDS011;47267;48.130;-2.040;2022-11-20T10:31:17;15.25;;;5.40;;
61397;SDS011;47267;48.130;-2.040;2022-11-20T10:33:50;16.92;;;5.90;;
61397;SDS011;47267;48.130;-2.040;2022-11-20T10:36:19;12.25;;;5.90;;
61397;SDS011;47267;48.130;-2.040;2022-11-20T10:39:11;12.85;;;5.75;;
61397;SDS011;47267;48.130;-2.040;2022-11-20T10:41:34;11.45;;;5.90;;
61397;SDS011;47267;48.130;-2.040;2022-11-20T10:44:15;13.82;;;6.47;;
61397;SDS011;47267;48.130;-2.040;2022-11-20T10:47:03;14.95;;;6.53;;
61397;SDS011;47267;48.130;-2.040;2022-11-20T10:49:30;15.02;;;7.05;;
61397;SDS011;47267;48.130;-2.040;2022-11-20T10:54:39;11.52;;;6.10;;
61397;SDS011;47267;48.130;-2.040;2022-11-20T10:57:31;12.98;;;6.28;;
61397;SDS011;47267;48.130;-2.040;2022-11-20T11:00:11;15.35;;;6.28;;
61397;SDS011;47267;48.130;-2.040;2022-11-20T11:02:42;15.38;;;6.70;;
61397;SDS011;47267;48.130;-2.040;2022-11-20T11:05:15;17.00;;;6.90;;
61397;SDS011;47267;48.130;-2.040;2022-11-20T11:07:43;13.95;;;6.45;;
61397;SDS011;47267;48.130;-2.040;2022-11-20T11:10:15;12.68;;;5.90;;
61397;SDS011;47267;48.130;-2.040;2022-11-20T11:12:43;10.65;;;5.82;;
61397;SDS011;47267;48.130;-2.040;2022-11-20T11:15:14;14.35;;;6.50;;
61397;SDS011;47267;48.130;-2.040;2022-11-20T11:17:46;13.25;;;6.68;;
61397;SDS011;47267;48.130;-2.040;2022-11-20T11:20:19;15.85;;;6.20;;
61397;SDS011;47267;48.130;-2.040;2022-11-20T11:22:47;13.32;;;6.55;;
61397;SDS011;47267;48.130;-2.040;2022-11-20T11:25:29;14.82;;;6.07;;
61397;SDS011;47267;48.130;-2.040;2022-11-20T11:28:00;14.52;;;6.35;;
61397;SDS011;47267;48.130;-2.040;2022-11-20T11:30:27;13.25;;;6.55;;
61397;SDS011;47267;48.130;-2.040;2022-11-20T11:35:51;14.50;;;6.43;;
61397;SDS011;47267;48.130;-2.040;2022-11-20T11:38:23;11.07;;;5.70;;
61397;SDS011;47267;48.130;-2.040;2022-11-20T11:40:53;12.05;;;5.95;;
61397;SDS011;47267;48.130;-2.040;2022-11-20T11:43:21;15.65;;;6.00;;
61397;SDS011;47267;48.130;-2.040;2022-11-20T11:46:29;11.77;;;5.97;;
61397;SDS011;47267;48.130;-2.040;2022-11-20T11:48:57;12.93;;;6.40;;
61397;SDS011;47267;48.130;-2.040;2022-11-20T11:54:18;12.52;;;5.82;;
61397;SDS011;47267;48.130;-2.040;2022-11-20T11:56:46;13.32;;;5.97;;
61397;SDS011;47267;48.130;-2.040;2022-11-20T11:59:15;14.80;;;5.90;;
61397;SDS011;47267;48.130;-2.040;2022-11-20T12:07:07;13.57;;;6.32;;
61397;SDS011;47267;48.130;-2.040;2022-11-20T12:09:41;10.35;;;4.80;;
61397;SDS011;47267;48.130;-2.040;2022-11-20T12:12:10;9.77;;;5.15;;
61397;SDS011;47267;48.130;-2.040;2022-11-20T12:14:40;10.85;;;5.32;;
61397;SDS011;47267;48.130;-2.040;2022-11-20T12:17:12;11.27;;;5.18;;
61397;SDS011;47267;48.130;-2.040;2022-11-20T12:19:40;8.80;;;4.85;;
61397;SDS011;47267;48.130;-2.040;2022-11-20T12:30:08;12.63;;;5.43;;
61397;SDS011;47267;48.130;-2.040;2022-11-20T12:48:42;9.93;;;4.65;;
61397;SDS011;47267;48.130;-2.040;2022-11-20T13:06:43;9.93;;;4.40;;
61397;SDS011;47267;48.130;-2.040;2022-11-20T13:09:11;12.13;;;4.18;;
61397;SDS011;47267;48.130;-2.040;2022-11-20T13:11:43;8.68;;;3.83;;
61397;SDS011;47267;48.130;-2.040;2022-11-20T13:14:12;9.40;;;4.07;;
61397;SDS011;47267;48.130;-2.040;2022-11-20T13:16:57;9.52;;;3.90;;
61397;SDS011;47267;48.130;-2.040;2022-11-20T13:19:24;10.93;;;4.25;;
61397;SDS011;47267;48.130;-2.040;2022-11-20T13:21:52;8.32;;;3.40;;
61397;SDS011;47267;48.130;-2.040;2022-11-20T13:29:43;9.73;;;3.78;;
61397;SDS011;47267;48.130;-2.040;2022-11-20T13:34:39;8.00;;;3.65;;
61397;SDS011;47267;48.130;-2.040;2022-11-20T13:37:05;9.02;;;3.72;;
61397;SDS011;47267;48.130;-2.040;2022-11-20T13:39:35;10.57;;;3.45;;
61397;SDS011;47267;48.130;-2.040;2022-11-20T13:42:03;9.40;;;3.78;;
61397;SDS011;47267;48.130;-2.040;2022-11-20T13:44:53;7.47;;;3.13;;
61397;SDS011;47267;48.130;-2.040;2022-11-20T13:47:20;8.18;;;3.58;;
61397;SDS011;47267;48.130;-2.040;2022-11-20T13:49:48;7.65;;;3.00;;
61397;SDS011;47267;48.130;-2.040;2022-11-20T13:55:01;6.60;;;2.85;;
61397;SDS011;47267;48.130;-2.040;2022-11-20T14:00:13;8.65;;;3.35;;
61397;SDS011;47267;48.130;-2.040;2022-11-20T14:02:40;8.15;;;3.63;;
61397;SDS011;47267;48.130;-2.040;2022-11-20T14:05:11;6.55;;;2.88;;
61397;SDS011;47267;48.130;-2.040;2022-11-20T14:07:41;5.07;;;2.83;;
61397;SDS011;47267;48.130;-2.040;2022-11-20T14:10:25;7.75;;;2.95;;
61397;SDS011;47267;48.130;-2.040;2022-11-20T14:12:52;8.27;;;3.40;;
61397;SDS011;47267;48.130;-2.040;2022-11-20T14:15:25;7.25;;;3.05;;
61397;SDS011;47267;48.130;-2.040;2022-11-20T14:17:52;6.40;;;3.20;;
61397;SDS011;47267;48.130;-2.040;2022-11-20T14:20:18;6.88;;;2.97;;
61397;SDS011;47267;48.130;-2.040;2022-11-20T14:22:51;8.60;;;3.07;;
61397;SDS011;47267;48.130;-2.040;2022-11-20T14:27:44;8.82;;;2.80;;
61397;SDS011;47267;48.130;-2.040;2022-11-20T14:30:18;7.65;;;2.90;;
61397;SDS011;47267;48.130;-2.040;2022-11-20T14:32:45;6.50;;;2.63;;
61397;SDS011;47267;48.130;-2.040;2022-11-20T14:35:23;6.13;;;2.90;;
61397;SDS011;47267;48.130;-2.040;2022-11-20T14:37:49;6.53;;;2.67;;
61397;SDS011;47267;48.130;-2.040;2022-11-20T14:42:48;7.82;;;3.00;;
61397;SDS011;47267;48.130;-2.040;2022-11-20T14:45:14;4.88;;;2.58;;
61397;SDS011;47267;48.130;-2.040;2022-11-20T14:47:40;7.40;;;2.50;;
61397;SDS011;47267;48.130;-2.040;2022-11-20T14:50:12;6.45;;;2.35;;
61397;SDS011;47267;48.130;-2.040;2022-11-20T14:52:39;8.63;;;2.92;;
61397;SDS011;47267;48.130;-2.040;2022-11-20T14:55:24;8.02;;;2.65;;
61397;SDS011;47267;48.130;-2.040;2022-11-20T14:57:54;6.07;;;2.17;;
61397;SDS011;47267;48.130;-2.040;2022-11-20T15:00:20;6.83;;;2.40;;
61397;SDS011;47267;48.130;-2.040;2022-11-20T15:02:48;6.18;;;2.70;;
61397;SDS011;47267;48.130;-2.040;2022-11-20T15:05:14;7.95;;;2.55;;
61397;SDS011;47267;48.130;-2.040;2022-11-20T15:07:42;7.90;;;2.67;;
61397;SDS011;47267;48.130;-2.040;2022-11-20T15:12:46;5.70;;;1.95;;
61397;SDS011;47267;48.130;-2.040;2022-11-20T15:15:14;6.65;;;2.38;;
61397;SDS011;47267;48.130;-2.040;2022-11-20T15:17:42;7.97;;;3.08;;
61397;SDS011;47267;48.130;-2.040;2022-11-20T15:20:17;5.05;;;2.20;;
61397;SDS011;47267;48.130;-2.040;2022-11-20T15:22:43;5.93;;;2.47;;
61397;SDS011;47267;48.130;-2.040;2022-11-20T15:25:13;5.75;;;2.20;;
61397;SDS011;47267;48.130;-2.040;2022-11-20T15:27:40;7.85;;;2.53;;
61397;SDS011;47267;48.130;-2.040;2022-11-20T15:30:16;8.65;;;2.55;;
61397;SDS011;47267;48.130;-2.040;2022-11-20T15:32:43;5.95;;;2.60;;
61397;SDS011;47267;48.130;-2.040;2022-11-20T15:35:09;6.72;;;2.65;;
61397;SDS011;47267;48.130;-2.040;2022-11-20T15:37:36;6.25;;;2.65;;
61397;SDS011;47267;48.130;-2.040;2022-11-20T15:40:02;5.90;;;2.17;;
61397;SDS011;47267;48.130;-2.040;2022-11-20T15:42:29;7.90;;;2.38;;
61397;SDS011;47267;48.130;-2.040;2022-11-20T15:44:55;6.63;;;2.28;;
61397;SDS011;47267;48.130;-2.040;2022-11-20T15:47:22;6.63;;;2.35;;
61397;SDS011;47267;48.130;-2.040;2022-11-20T15:49:50;9.70;;;2.38;;
61397;SDS011;47267;48.130;-2.040;2022-11-20T15:52:16;7.45;;;2.67;;
61397;SDS011;47267;48.130;-2.040;2022-11-20T15:54:42;6.40;;;2.40;;
61397;SDS011;47267;48.130;-2.040;2022-11-20T15:57:08;7.78;;;2.47;;
61397;SDS011;47267;48.130;-2.040;2022-11-20T15:59:34;6.60;;;2.42;;
61397;SDS011;47267;48.130;-2.040;2022-11-20T16:02:08;6.78;;;2.45;;
61397;SDS011;47267;48.130;-2.040;2022-11-20T16:04:34;5.15;;;1.88;;
61397;SDS011;47267;48.130;-2.040;2022-11-20T16:07:00;5.93;;;2.15;;
61397;SDS011;47267;48.130;-2.040;2022-11-20T16:09:27;6.95;;;2.13;;
61397;SDS011;47267;48.130;-2.040;2022-11-20T16:11:53;6.72;;;2.13;;
61397;SDS011;47267;48.130;-2.040;2022-11-20T16:14:19;6.25;;;2.10;;
61397;SDS011;47267;48.130;-2.040;2022-11-20T16:17:04;7.15;;;2.55;;
61397;SDS011;47267;48.130;-2.040;2022-11-20T16:19:30;5.78;;;2.20;;
61397;SDS011;47267;48.130;-2.040;2022-11-20T16:21:59;4.60;;;1.80;;
61397;SDS011;47267;48.130;-2.040;2022-11-20T16:24:26;6.75;;;2.08;;
61397;SDS011;47267;48.130;-2.040;2022-11-20T16:26:55;6.95;;;2.08;;
61397;SDS011;47267;48.130;-2.040;2022-11-20T16:29:21;5.97;;;2.20;;
61397;SDS011;47267;48.130;-2.040;2022-11-20T16:31:48;6.40;;;2.58;;
61397;SDS011;47267;48.130;-2.040;2022-11-20T16:34:15;8.02;;;2.22;;
61397;SDS011;47267;48.130;-2.040;2022-11-20T16:36:43;6.20;;;2.13;;